Time;durP1;ratioP1;P1;durP2;ratioP2;P2;SDS_P1;SDS_P2;PMS_P1;PMS_P2;Temp;Humidity;BMP_temperature;BMP_pressure;BME280_temperature;BME280_humidity;BME280_pressure;Samples;Min_cycle;Max_cycle;Signal;HPM_P1;HPM_P2
2023/04/14 00:01:43;;;;;;;8.63;2.67;;;;;;;;;;4987936;28;21045;-92
2023/04/14 00:04:10;;;;;;;2.90;2.10;;;;;;;;;;4988764;28;20495;-92
2023/04/14 00:06:36;;;;;;;7.10;2.27;;;;;;;;;;4988353;28;20448;-91
2023/04/14 00:09:02;;;;;;;3.80;2.27;;;;;;;;;;4986891;28;20471;-91
2023/04/14 00:11:28;;;;;;;4.40;1.63;;;;;;;;;;4987554;28;20467;-91
2023/04/14 00:13:56;;;;;;;8.13;2.43;;;;;;;;;;4985064;28;20453;-92
2023/04/14 00:16:22;;;;;;;5.37;1.90;;;;;;;;;;4988117;28;20424;-91
2023/04/14 00:18:48;;;;;;;10.03;2.50;;;;;;;;;;4989106;28;20440;-91
2023/04/14 00:21:14;;;;;;;4.47;1.97;;;;;;;;;;5004931;28;20431;-91
2023/04/14 00:23:40;;;;;;;5.70;2.07;;;;;;;;;;4991186;28;20423;-91
2023/04/14 00:26:08;;;;;;;5.60;2.47;;;;;;;;;;5008486;28;20560;-91
2023/04/14 00:28:34;;;;;;;5.43;2.23;;;;;;;;;;5006705;28;20466;-91
2023/04/14 00:31:00;;;;;;;4.53;2.40;;;;;;;;;;4992998;28;20533;-91
2023/04/14 00:33:26;;;;;;;32.80;3.80;;;;;;;;;;4984138;28;20432;-91
2023/04/14 00:35:52;;;;;;;3.83;1.97;;;;;;;;;;4986798;28;20445;-91
2023/04/14 00:38:18;;;;;;;4.30;2.10;;;;;;;;;;5013118;28;20454;-91
2023/04/14 00:40:44;;;;;;;5.50;2.50;;;;;;;;;;4989852;28;21087;-91
2023/04/14 00:43:10;;;;;;;3.80;2.57;;;;;;;;;;4990027;28;20432;-90
2023/04/14 00:45:38;;;;;;;4.13;2.63;;;;;;;;;;4992792;28;20436;-91
2023/04/14 00:48:04;;;;;;;4.40;1.80;;;;;;;;;;4997127;28;20430;-91
2023/04/14 00:50:30;;;;;;;4.53;1.80;;;;;;;;;;4997509;28;20802;-92
2023/04/14 00:52:57;;;;;;;7.67;2.10;;;;;;;;;;5009793;28;20420;-92
2023/04/14 00:55:23;;;;;;;2.53;1.53;;;;;;;;;;4998957;28;20421;-92
2023/04/14 00:57:49;;;;;;;3.87;1.63;;;;;;;;;;4993358;28;20427;-92
2023/04/14 01:00:15;;;;;;;6.67;1.83;;;;;;;;;;4990996;28;20436;-92
2023/04/14 01:02:41;;;;;;;4.30;2.03;;;;;;;;;;4998024;28;20442;-92
2023/04/14 01:05:07;;;;;;;4.27;1.60;;;;;;;;;;4985569;28;20809;-92
2023/04/14 01:07:33;;;;;;;3.17;2.20;;;;;;;;;;4993715;28;20432;-91
2023/04/14 01:10:02;;;;;;;5.27;1.80;;;;;;;;;;4993318;28;20456;-92
2023/04/14 01:12:44;;;;;;;7.80;3.00;;;;;;;;;;4993853;28;20459;-92
2023/04/14 01:15:33;;;;;;;3.10;1.47;;;;;;;;;;5005875;28;20548;-92
2023/04/14 01:17:59;;;;;;;7.13;1.63;;;;;;;;;;5013272;28;20428;-92
2023/04/14 01:20:30;;;;;;;7.30;2.23;;;;;;;;;;5015167;28;20490;-93
2023/04/14 01:23:06;;;;;;;4.70;1.90;;;;;;;;;;5006255;28;20451;-92
2023/04/14 01:25:47;;;;;;;6.57;2.30;;;;;;;;;;5004444;28;20431;-92
2023/04/14 01:28:32;;;;;;;8.03;2.20;;;;;;;;;;5005019;28;20444;-92
2023/04/14 01:31:07;;;;;;;5.83;1.90;;;;;;;;;;4998905;28;20960;-91
2023/04/14 01:33:33;;;;;;;5.47;2.27;;;;;;;;;;4986191;28;20442;-92
2023/04/14 01:36:00;;;;;;;4.83;2.07;;;;;;;;;;4982587;28;20437;-92
2023/04/14 01:38:27;;;;;;;3.20;1.80;;;;;;;;;;4998717;28;20448;-94
2023/04/14 01:40:53;;;;;;;1.77;1.57;;;;;;;;;;4985045;28;20427;-92
2023/04/14 01:43:22;;;;;;;5.80;1.60;;;;;;;;;;4995509;28;20460;-92
2023/04/14 01:45:49;;;;;;;2.47;1.70;;;;;;;;;;4984761;28;20439;-92
2023/04/14 01:48:15;;;;;;;3.70;2.00;;;;;;;;;;4982649;28;20437;-92
2023/04/14 01:50:41;;;;;;;4.23;1.73;;;;;;;;;;5000692;28;20442;-91
2023/04/14 01:53:07;;;;;;;3.73;2.10;;;;;;;;;;4986999;28;20504;-92
2023/04/14 01:55:34;;;;;;;6.17;2.30;;;;;;;;;;4992973;28;20960;-92
2023/04/14 01:58:03;;;;;;;6.30;1.40;;;;;;;;;;4990356;28;20455;-92
2023/04/14 02:00:30;;;;;;;3.07;1.87;;;;;;;;;;4985515;28;20531;-92
2023/04/14 02:02:56;;;;;;;4.40;2.20;;;;;;;;;;4985494;28;20713;-91
2023/04/14 02:05:22;;;;;;;3.10;1.87;;;;;;;;;;4997521;28;20938;-91
2023/04/14 02:07:48;;;;;;;10.63;2.33;;;;;;;;;;4986435;28;20516;-92
2023/04/14 02:10:15;;;;;;;2.43;1.80;;;;;;;;;;4990963;28;20468;-92
2023/04/14 02:12:41;;;;;;;5.83;2.40;;;;;;;;;;4989644;28;20462;-92
2023/04/14 02:15:11;;;;;;;4.50;1.93;;;;;;;;;;4988989;28;20466;-91
2023/04/14 02:17:37;;;;;;;3.87;2.20;;;;;;;;;;4995302;28;20436;-91
2023/04/14 02:20:03;;;;;;;4.23;2.43;;;;;;;;;;4989352;28;20428;-91
2023/04/14 02:22:29;;;;;;;6.53;2.00;;;;;;;;;;4997702;28;20439;-91
2023/04/14 02:24:55;;;;;;;10.63;1.83;;;;;;;;;;4987553;28;20454;-92
2023/04/14 02:27:39;;;;;;;5.10;1.67;;;;;;;;;;4998399;28;20826;-91
2023/04/14 02:30:15;;;;;;;7.90;2.57;;;;;;;;;;4996480;28;20510;-91
2023/04/14 02:32:43;;;;;;;3.70;1.63;;;;;;;;;;5004650;28;20447;-91
2023/04/14 02:35:16;;;;;;;4.83;2.40;;;;;;;;;;4987740;28;21001;-91
2023/04/14 02:37:44;;;;;;;4.37;2.33;;;;;;;;;;4990500;28;20447;-91
2023/04/14 02:40:30;;;;;;;7.73;2.17;;;;;;;;;;4990169;28;20459;-92
2023/04/14 02:43:00;;;;;;;9.37;2.30;;;;;;;;;;4999830;28;20547;-91
2023/04/14 02:45:27;;;;;;;5.10;1.50;;;;;;;;;;4988747;28;20970;-92
2023/04/14 02:47:54;;;;;;;7.60;2.10;;;;;;;;;;4983048;28;20937;-91
2023/04/14 02:50:20;;;;;;;2.60;2.10;;;;;;;;;;4984238;28;20462;-91
2023/04/14 02:52:50;;;;;;;2.03;1.80;;;;;;;;;;5001245;28;20424;-91
2023/04/14 02:55:16;;;;;;;4.80;1.70;;;;;;;;;;4992817;28;20431;-89
2023/04/14 02:57:42;;;;;;;6.57;1.80;;;;;;;;;;4986263;28;20455;-90
2023/04/14 03:00:08;;;;;;;2.57;1.90;;;;;;;;;;4990119;28;20428;-90
2023/04/14 03:02:34;;;;;;;3.47;1.83;;;;;;;;;;4994599;28;20431;-91
2023/04/14 03:05:01;;;;;;;4.00;1.57;;;;;;;;;;4987103;28;20503;-93
2023/04/14 03:07:27;;;;;;;2.80;1.63;;;;;;;;;;5001726;28;20436;-90
2023/04/14 03:09:52;;;;;;;5.27;1.87;;;;;;;;;;4988101;28;20462;-91
2023/04/14 03:12:19;;;;;;;5.30;2.00;;;;;;;;;;4984055;28;20436;-90
2023/04/14 03:14:45;;;;;;;6.57;2.43;;;;;;;;;;4986300;28;20432;-90
2023/04/14 03:17:13;;;;;;;2.00;1.50;;;;;;;;;;4985889;28;20481;-91
2023/04/14 03:19:40;;;;;;;3.60;2.27;;;;;;;;;;4986243;28;21082;-91
2023/04/14 03:22:07;;;;;;;13.80;2.70;;;;;;;;;;4985805;28;20441;-91
2023/04/14 03:24:34;;;;;;;3.03;1.70;;;;;;;;;;4984726;28;20443;-91
2023/04/14 03:27:01;;;;;;;5.47;1.70;;;;;;;;;;4985930;28;20423;-90
2023/04/14 03:29:28;;;;;;;6.37;2.13;;;;;;;;;;4983550;28;20896;-91
2023/04/14 03:31:54;;;;;;;4.13;2.10;;;;;;;;;;4990163;28;20478;-91
2023/04/14 03:34:20;;;;;;;4.20;2.07;;;;;;;;;;4981601;28;20449;-90
2023/04/14 03:36:47;;;;;;;5.23;1.77;;;;;;;;;;4990344;28;20432;-90
2023/04/14 03:39:13;;;;;;;6.03;1.77;;;;;;;;;;4998586;28;20448;-90
2023/04/14 03:41:42;;;;;;;7.17;2.10;;;;;;;;;;4998712;28;20439;-91
2023/04/14 03:44:14;;;;;;;3.10;1.60;;;;;;;;;;5000393;28;20470;-91
2023/04/14 03:46:40;;;;;;;8.50;2.00;;;;;;;;;;4989663;28;20428;-90
2023/04/14 03:49:09;;;;;;;2.63;1.87;;;;;;;;;;4990816;28;20467;-90
2023/04/14 03:51:36;;;;;;;10.47;2.03;;;;;;;;;;5007036;28;20436;-90
2023/04/14 03:54:02;;;;;;;3.63;1.93;;;;;;;;;;4989185;28;20464;-91
2023/04/14 03:56:28;;;;;;;5.73;2.40;;;;;;;;;;4986893;28;20806;-90
2023/04/14 03:58:54;;;;;;;4.37;2.03;;;;;;;;;;5002960;28;20436;-91
2023/04/14 04:01:24;;;;;;;3.10;1.90;;;;;;;;;;4987106;28;20490;-90
2023/04/14 04:03:50;;;;;;;2.47;1.70;;;;;;;;;;5003768;28;20455;-91
2023/04/14 04:06:16;;;;;;;4.97;1.70;;;;;;;;;;4985546;28;20440;-91
2023/04/14 04:08:42;;;;;;;5.10;2.07;;;;;;;;;;4986577;28;20456;-91
2023/04/14 04:11:09;;;;;;;5.03;1.70;;;;;;;;;;4989284;28;20435;-91
2023/04/14 04:13:35;;;;;;;5.17;2.63;;;;;;;;;;5000292;28;20443;-90
2023/04/14 04:16:01;;;;;;;4.40;2.17;;;;;;;;;;5001868;28;20447;-91
2023/04/14 04:18:27;;;;;;;3.33;1.87;;;;;;;;;;4987034;28;20951;-90
2023/04/14 04:20:54;;;;;;;6.37;1.60;;;;;;;;;;4988943;28;20440;-94
2023/04/14 04:23:20;;;;;;;2.77;2.20;;;;;;;;;;4990759;28;20472;-93
2023/04/14 04:25:46;;;;;;;5.77;1.80;;;;;;;;;;4991953;28;20440;-94
2023/04/14 04:28:12;;;;;;;5.67;1.90;;;;;;;;;;4990767;28;20625;-93
2023/04/14 04:30:39;;;;;;;4.80;1.90;;;;;;;;;;4990308;28;20444;-93
2023/04/14 04:33:05;;;;;;;5.67;1.77;;;;;;;;;;4989023;28;20978;-93
2023/04/14 04:35:31;;;;;;;3.20;1.97;;;;;;;;;;4987396;28;20828;-92
2023/04/14 04:37:59;;;;;;;2.47;1.50;;;;;;;;;;4988205;28;20459;-92
2023/04/14 04:40:25;;;;;;;5.63;2.23;;;;;;;;;;4994564;28;20498;-94
2023/04/14 04:42:52;;;;;;;4.47;2.30;;;;;;;;;;5003544;28;20443;-95
2023/04/14 04:45:41;;;;;;;7.43;2.30;;;;;;;;;;4984904;28;20440;-95
2023/04/14 04:48:07;;;;;;;5.60;2.10;;;;;;;;;;4977818;28;20444;-95
2023/04/14 04:50:33;;;;;;;3.33;1.80;;;;;;;;;;4993934;28;20521;-93
2023/04/14 04:52:59;;;;;;;5.97;1.70;;;;;;;;;;4988944;28;20422;-94
2023/04/14 04:55:25;;;;;;;6.60;1.70;;;;;;;;;;4988924;28;21320;-95
2023/04/14 04:57:51;;;;;;;3.60;2.17;;;;;;;;;;5004493;28;20466;-94
2023/04/14 07:28:22;;;;;;;3.00;1.30;;;;;;;;;;5006324;28;20472;-96
2023/04/14 07:30:48;;;;;;;5.27;1.60;;;;;;;;;;4987800;28;20459;-94
2023/04/14 07:33:17;;;;;;;10.60;2.57;;;;;;;;;;4971313;28;20429;-93
2023/04/14 07:35:44;;;;;;;4.10;1.33;;;;;;;;;;4978069;28;20504;-93
2023/04/14 07:38:10;;;;;;;2.27;1.47;;;;;;;;;;4993796;28;20445;-92
2023/04/14 07:40:36;;;;;;;2.37;1.57;;;;;;;;;;4970460;28;20580;-92
2023/04/14 07:43:02;;;;;;;6.20;1.70;;;;;;;;;;4972115;28;20932;-93
2023/04/14 07:45:29;;;;;;;2.50;1.20;;;;;;;;;;4971274;28;20416;-93
2023/04/14 07:47:56;;;;;;;3.40;1.37;;;;;;;;;;4975235;28;20419;-93
2023/04/14 07:50:22;;;;;;;6.90;1.40;;;;;;;;;;4970178;28;20464;-92
2023/04/14 07:52:48;;;;;;;5.80;1.37;;;;;;;;;;4946817;29;20442;-91
2023/04/14 07:55:14;;;;;;;6.93;1.70;;;;;;;;;;4930466;28;20415;-91
2023/04/14 07:57:41;;;;;;;2.83;1.30;;;;;;;;;;4946290;29;20460;-93
2023/04/14 08:00:10;;;;;;;2.53;1.33;;;;;;;;;;4953343;29;20822;-88
2023/04/14 08:02:36;;;;;;;3.87;1.63;;;;;;;;;;4930683;29;20451;-91
2023/04/14 08:05:04;;;;;;;3.90;1.10;;;;;;;;;;4966237;28;20461;-91
2023/04/14 08:07:30;;;;;;;2.53;1.20;;;;;;;;;;4944938;29;20975;-90
2023/04/14 08:09:57;;;;;;;17.83;1.70;;;;;;;;;;4930953;29;20465;-91
2023/04/14 08:12:23;;;;;;;4.77;1.90;;;;;;;;;;4929353;29;20458;-93
2023/04/14 08:14:49;;;;;;;2.03;1.20;;;;;;;;;;4931612;29;20486;-93
2023/04/14 08:17:17;;;;;;;6.20;1.40;;;;;;;;;;4928912;29;20446;-94
2023/04/14 08:19:43;;;;;;;3.80;1.60;;;;;;;;;;4952647;28;20441;-93
2023/04/14 08:22:09;;;;;;;2.50;1.27;;;;;;;;;;4936606;29;20654;-92
2023/04/14 08:24:35;;;;;;;1.97;1.00;;;;;;;;;;4962062;28;20429;-90
2023/04/14 08:27:02;;;;;;;3.30;1.40;;;;;;;;;;4964998;28;20446;-92
2023/04/14 08:29:29;;;;;;;2.83;1.40;;;;;;;;;;4973786;28;20479;-93
2023/04/14 08:31:56;;;;;;;2.23;1.17;;;;;;;;;;4962962;28;20791;-93
2023/04/14 08:34:33;;;;;;;2.60;1.50;;;;;;;;;;4969173;28;20504;-93
2023/04/14 08:36:59;;;;;;;2.40;1.47;;;;;;;;;;4985159;28;20435;-92
2023/04/14 08:39:26;;;;;;;2.07;1.37;;;;;;;;;;4986139;28;20429;-90
2023/04/14 08:41:52;;;;;;;2.87;1.47;;;;;;;;;;4980856;28;20453;-90
2023/04/14 08:44:18;;;;;;;2.80;1.17;;;;;;;;;;4971301;28;20433;-91
2023/04/14 08:46:45;;;;;;;4.00;2.13;;;;;;;;;;4974003;28;21010;-90
2023/04/14 08:49:12;;;;;;;3.20;1.47;;;;;;;;;;4971515;28;20453;-93
2023/04/14 08:51:41;;;;;;;3.30;1.77;;;;;;;;;;4964674;28;20445;-90
2023/04/14 08:54:19;;;;;;;2.23;1.47;;;;;;;;;;4969940;28;20428;-90
2023/04/14 08:56:47;;;;;;;4.10;1.83;;;;;;;;;;4968411;28;20432;-90
2023/04/14 08:59:13;;;;;;;3.50;1.27;;;;;;;;;;4971306;28;20452;-89
2023/04/14 09:01:39;;;;;;;5.63;1.90;;;;;;;;;;4965773;28;20512;-90
2023/04/14 09:04:05;;;;;;;2.63;1.30;;;;;;;;;;4976679;28;21091;-90
2023/04/14 09:06:32;;;;;;;5.97;1.87;;;;;;;;;;4964305;28;20464;-90
2023/04/14 09:09:07;;;;;;;3.00;1.40;;;;;;;;;;4970255;28;20449;-91
2023/04/14 09:11:33;;;;;;;8.20;2.20;;;;;;;;;;4975192;28;20425;-90
2023/04/14 09:14:00;;;;;;;2.90;1.43;;;;;;;;;;4966247;28;20433;-91
2023/04/14 09:16:26;;;;;;;9.90;2.70;;;;;;;;;;4967815;28;20433;-92
2023/04/14 09:18:55;;;;;;;3.53;1.50;;;;;;;;;;4983695;28;20393;-91
2023/04/14 09:21:21;;;;;;;2.20;1.30;;;;;;;;;;4987639;28;20459;-91
2023/04/14 09:23:47;;;;;;;7.10;1.70;;;;;;;;;;4972048;28;20479;-91
2023/04/14 09:26:13;;;;;;;2.50;1.50;;;;;;;;;;4972995;28;20445;-92
2023/04/14 09:28:40;;;;;;;8.23;2.70;;;;;;;;;;4966010;28;20470;-89
2023/04/14 09:31:07;;;;;;;3.50;1.63;;;;;;;;;;4972668;28;20432;-92
2023/04/14 09:33:36;;;;;;;6.10;2.10;;;;;;;;;;4980951;28;20444;-92
2023/04/14 09:36:02;;;;;;;4.47;1.80;;;;;;;;;;4969411;28;20504;-92
2023/04/14 09:38:32;;;;;;;3.10;1.57;;;;;;;;;;4966901;28;20468;-92
2023/04/14 09:40:58;;;;;;;3.97;1.60;;;;;;;;;;4982479;28;20441;-92
2023/04/14 09:43:28;;;;;;;4.20;1.43;;;;;;;;;;4967621;28;20431;-92
2023/04/14 09:45:54;;;;;;;4.33;1.53;;;;;;;;;;4976633;28;20416;-89
2023/04/14 09:48:20;;;;;;;6.03;1.70;;;;;;;;;;4981775;28;20424;-92
2023/04/14 09:51:05;;;;;;;3.40;1.70;;;;;;;;;;4968716;28;20485;-92
2023/04/14 09:53:32;;;;;;;3.27;1.83;;;;;;;;;;4966482;28;20449;-93
2023/04/14 09:55:58;;;;;;;5.80;2.40;;;;;;;;;;4969655;28;20423;-92
2023/04/14 09:58:30;;;;;;;3.60;1.50;;;;;;;;;;4988593;28;20703;-92
2023/04/14 10:00:58;;;;;;;3.40;1.87;;;;;;;;;;4987205;28;20424;-92
2023/04/14 10:03:42;;;;;;;7.50;1.70;;;;;;;;;;4977758;28;20444;-92
2023/04/14 10:06:09;;;;;;;5.33;1.90;;;;;;;;;;4992186;28;20946;-90
2023/04/14 10:08:36;;;;;;;4.23;1.60;;;;;;;;;;4968704;28;20456;-92
2023/04/14 10:11:21;;;;;;;2.37;1.43;;;;;;;;;;4969575;28;20432;-90
2023/04/14 10:13:48;;;;;;;5.67;1.83;;;;;;;;;;4962561;28;20405;-90
2023/04/14 10:16:14;;;;;;;6.63;1.93;;;;;;;;;;4958502;28;20428;-90
2023/04/14 10:18:40;;;;;;;6.00;1.40;;;;;;;;;;4968789;28;20512;-90
2023/04/14 10:21:07;;;;;;;8.00;1.93;;;;;;;;;;4966937;28;20410;-91
2023/04/14 10:23:34;;;;;;;7.07;1.60;;;;;;;;;;4998785;28;20491;-91
2023/04/14 10:26:00;;;;;;;6.13;1.60;;;;;;;;;;4968219;28;20409;-91
2023/04/14 10:28:27;;;;;;;10.20;1.77;;;;;;;;;;4969676;28;20475;-90
2023/04/14 10:30:53;;;;;;;4.53;1.47;;;;;;;;;;4987707;28;20487;-91
2023/04/14 10:33:20;;;;;;;6.40;1.80;;;;;;;;;;4980094;28;20425;-92
2023/04/14 10:35:47;;;;;;;4.00;1.73;;;;;;;;;;4962761;28;20460;-90
2023/04/14 10:38:13;;;;;;;4.80;1.40;;;;;;;;;;4959184;28;20437;-90
2023/04/14 10:40:46;;;;;;;3.83;1.37;;;;;;;;;;4969014;28;20445;-89
2023/04/14 10:43:15;;;;;;;4.03;1.40;;;;;;;;;;4962739;28;20445;-91
2023/04/14 10:45:56;;;;;;;4.43;1.80;;;;;;;;;;4986466;28;20437;-90
2023/04/14 10:48:27;;;;;;;4.40;1.87;;;;;;;;;;4983537;28;20444;-85
2023/04/14 10:51:03;;;;;;;4.17;1.60;;;;;;;;;;4978347;28;20461;-90
2023/04/14 10:53:37;;;;;;;6.30;1.50;;;;;;;;;;5002147;28;20423;-89
2023/04/14 10:56:03;;;;;;;3.03;1.33;;;;;;;;;;4979396;28;20812;-91
2023/04/14 10:58:29;;;;;;;3.63;1.73;;;;;;;;;;4978773;28;20512;-90
2023/04/14 11:00:58;;;;;;;3.60;1.60;;;;;;;;;;4974663;28;20426;-91
2023/04/14 11:03:26;;;;;;;3.13;1.50;;;;;;;;;;4980975;28;20433;-90
2023/04/14 11:05:52;;;;;;;4.43;1.40;;;;;;;;;;4986848;28;20433;-91
2023/04/14 11:08:33;;;;;;;3.80;2.83;;;;;;;;;;4967209;28;20429;-91
2023/04/14 11:11:03;;;;;;;7.10;2.90;;;;;;;;;;4969883;28;20429;-91
2023/04/14 11:13:29;;;;;;;3.83;1.93;;;;;;;;;;4963013;28;20440;-88
2023/04/14 11:15:56;;;;;;;5.97;1.80;;;;;;;;;;4983605;28;20818;-90
2023/04/14 11:18:31;;;;;;;6.87;1.90;;;;;;;;;;4983343;28;20447;-94
2023/04/14 11:21:05;;;;;;;3.93;1.73;;;;;;;;;;4999949;28;20451;-91
2023/04/14 11:23:31;;;;;;;3.20;1.40;;;;;;;;;;4977213;28;20516;-89
2023/04/14 11:25:57;;;;;;;2.40;2.00;;;;;;;;;;4992987;28;20463;-90
2023/04/14 11:28:33;;;;;;;2.93;1.50;;;;;;;;;;4971951;28;20440;-90
2023/04/14 11:31:00;;;;;;;5.93;1.50;;;;;;;;;;4981268;28;20463;-90
2023/04/14 11:33:28;;;;;;;3.93;1.40;;;;;;;;;;4982210;28;20429;-89
2023/04/14 11:35:56;;;;;;;2.43;1.47;;;;;;;;;;4968859;28;20456;-88
2023/04/14 11:38:22;;;;;;;2.97;1.60;;;;;;;;;;4981351;28;20437;-89
2023/04/14 11:40:49;;;;;;;4.00;1.50;;;;;;;;;;4982258;28;20524;-92
2023/04/14 11:43:15;;;;;;;2.43;1.40;;;;;;;;;;4969168;28;20932;-88
2023/04/14 11:45:42;;;;;;;3.40;1.97;;;;;;;;;;4964441;28;20794;-88
2023/04/14 11:48:27;;;;;;;3.50;1.87;;;;;;;;;;4965220;28;20475;-91
2023/04/14 11:50:54;;;;;;;3.30;1.73;;;;;;;;;;4993631;28;20444;-92
2023/04/14 11:53:21;;;;;;;3.67;1.37;;;;;;;;;;4955466;28;20511;-92
2023/04/14 11:55:51;;;;;;;2.17;1.27;;;;;;;;;;4967576;28;20429;-92
2023/04/14 11:58:21;;;;;;;4.73;1.47;;;;;;;;;;4972984;28;20425;-91
2023/04/14 12:00:50;;;;;;;6.60;1.83;;;;;;;;;;4969571;28;20497;-91
2023/04/14 12:03:17;;;;;;;2.93;1.20;;;;;;;;;;4972137;28;20417;-92
2023/04/14 12:05:43;;;;;;;4.80;1.40;;;;;;;;;;4969678;28;20431;-91
2023/04/14 12:08:11;;;;;;;3.80;1.10;;;;;;;;;;4980440;28;20424;-89
2023/04/14 12:10:45;;;;;;;3.10;1.53;;;;;;;;;;4987869;28;20469;-92
2023/04/14 12:13:12;;;;;;;5.23;1.83;;;;;;;;;;5000314;28;20416;-92
2023/04/14 12:15:40;;;;;;;2.77;1.30;;;;;;;;;;4971786;28;20429;-93
2023/04/14 12:18:12;;;;;;;3.57;1.10;;;;;;;;;;4975198;28;20433;-93
2023/04/14 12:20:41;;;;;;;4.37;1.53;;;;;;;;;;4971093;28;20495;-93
2023/04/14 12:23:07;;;;;;;5.53;1.40;;;;;;;;;;4976703;28;20399;-93
2023/04/14 12:25:39;;;;;;;4.33;1.40;;;;;;;;;;4947844;29;20415;-93
2023/04/14 12:28:08;;;;;;;2.23;1.40;;;;;;;;;;4960017;28;20419;-93
2023/04/14 12:30:35;;;;;;;3.10;1.53;;;;;;;;;;4954328;28;20554;-93
2023/04/14 12:33:10;;;;;;;5.33;1.80;;;;;;;;;;4966813;28;20458;-93
2023/04/14 12:35:37;;;;;;;5.27;1.50;;;;;;;;;;4946654;29;20542;-91
2023/04/14 12:38:11;;;;;;;3.10;1.30;;;;;;;;;;4938609;29;20426;-93
2023/04/14 12:40:45;;;;;;;5.97;1.70;;;;;;;;;;4948988;29;20431;-92
2023/04/14 12:43:12;;;;;;;2.80;1.40;;;;;;;;;;4948346;29;20438;-92
2023/04/14 12:45:49;;;;;;;2.13;1.00;;;;;;;;;;4947810;28;20522;-92
2023/04/14 12:48:36;;;;;;;2.97;1.50;;;;;;;;;;4937065;28;20500;-92
2023/04/14 12:51:11;;;;;;;5.80;2.23;;;;;;;;;;4970999;28;20502;-91
2023/04/14 12:53:37;;;;;;;6.13;1.60;;;;;;;;;;4950078;28;20464;-91
2023/04/14 12:56:11;;;;;;;4.20;1.33;;;;;;;;;;4969659;28;20452;-91
2023/04/14 12:58:37;;;;;;;3.50;1.27;;;;;;;;;;4985249;28;20442;-91
2023/04/14 13:01:09;;;;;;;3.40;1.70;;;;;;;;;;4965336;28;20441;-88
2023/04/14 13:03:38;;;;;;;4.90;2.93;;;;;;;;;;4950923;28;20802;-89
2023/04/14 13:06:06;;;;;;;2.80;1.30;;;;;;;;;;4979615;28;20568;-90
2023/04/14 13:08:32;;;;;;;6.00;1.40;;;;;;;;;;4969848;28;20472;-93
2023/04/14 13:10:58;;;;;;;3.60;1.30;;;;;;;;;;4958478;28;20467;-90
2023/04/14 13:13:24;;;;;;;3.70;1.20;;;;;;;;;;4950135;28;20434;-90
2023/04/14 13:15:50;;;;;;;2.40;1.30;;;;;;;;;;4955782;28;20440;-90
2023/04/14 13:18:16;;;;;;;2.20;1.33;;;;;;;;;;4954005;28;20481;-90
2023/04/14 13:20:51;;;;;;;2.37;1.73;;;;;;;;;;4952096;28;20525;-91
2023/04/14 13:23:17;;;;;;;3.80;1.60;;;;;;;;;;4953437;28;20429;-90
2023/04/14 13:25:43;;;;;;;3.70;1.80;;;;;;;;;;4964434;28;20452;-90
2023/04/14 13:28:09;;;;;;;2.23;1.00;;;;;;;;;;4947708;28;20453;-90
2023/04/14 13:30:38;;;;;;;4.10;1.33;;;;;;;;;;4950548;28;20450;-89
2023/04/14 13:33:04;;;;;;;3.60;1.60;;;;;;;;;;4959435;28;20430;-91
2023/04/14 13:35:30;;;;;;;3.83;1.20;;;;;;;;;;4968105;28;20426;-90
2023/04/14 13:37:57;;;;;;;2.83;1.23;;;;;;;;;;4944463;28;20446;-90
2023/04/14 13:40:24;;;;;;;1.60;1.20;;;;;;;;;;4993407;28;20441;-89
2023/04/14 13:42:50;;;;;;;1.90;1.00;;;;;;;;;;4967770;28;20499;-90
2023/04/14 13:45:16;;;;;;;2.10;1.00;;;;;;;;;;4964861;28;20437;-89
2023/04/14 13:47:46;;;;;;;5.40;1.33;;;;;;;;;;4967094;28;20417;-89
2023/04/14 13:50:12;;;;;;;3.07;1.70;;;;;;;;;;4967718;28;20526;-88
2023/04/14 13:52:39;;;;;;;4.07;1.47;;;;;;;;;;4963593;28;20897;-89
2023/04/14 13:55:05;;;;;;;5.03;1.30;;;;;;;;;;4994945;28;20960;-89
2023/04/14 13:57:32;;;;;;;3.80;1.43;;;;;;;;;;4943658;28;20450;-90
2023/04/14 13:59:58;;;;;;;3.13;1.60;;;;;;;;;;4944399;28;20474;-90
2023/04/14 14:02:24;;;;;;;3.97;2.00;;;;;;;;;;4949253;28;20446;-92
2023/04/14 14:04:50;;;;;;;4.20;1.60;;;;;;;;;;4927628;29;20507;-89
2023/04/14 14:07:16;;;;;;;3.57;1.40;;;;;;;;;;4938207;28;20450;-90
2023/04/14 14:09:44;;;;;;;2.10;1.10;;;;;;;;;;4962617;28;20461;-91
2023/04/14 14:12:10;;;;;;;2.57;1.40;;;;;;;;;;4946705;28;20439;-90
2023/04/14 14:14:37;;;;;;;4.43;1.50;;;;;;;;;;4973159;28;20449;-90
2023/04/14 14:17:03;;;;;;;4.57;1.60;;;;;;;;;;4944444;29;20468;-90
2023/04/14 14:19:29;;;;;;;4.17;1.40;;;;;;;;;;4940793;29;20432;-90
2023/04/14 14:21:55;;;;;;;1.90;1.23;;;;;;;;;;4944388;29;20488;-90
2023/04/14 14:24:22;;;;;;;2.67;1.07;;;;;;;;;;4970281;28;20446;-90
2023/04/14 14:26:48;;;;;;;4.40;1.20;;;;;;;;;;4951864;28;20519;-91
2023/04/14 14:29:14;;;;;;;3.13;1.20;;;;;;;;;;4968315;28;20499;-91
2023/04/14 14:31:40;;;;;;;2.30;1.47;;;;;;;;;;4975579;28;20461;-90
2023/04/14 14:34:06;;;;;;;2.90;1.27;;;;;;;;;;4964398;28;20433;-90
2023/04/14 14:36:32;;;;;;;3.60;1.00;;;;;;;;;;4976272;28;20449;-91
2023/04/14 14:38:58;;;;;;;7.17;1.73;;;;;;;;;;4980099;28;20512;-91
2023/04/14 14:41:24;;;;;;;3.77;1.50;;;;;;;;;;4971090;28;20810;-91
2023/04/14 14:43:51;;;;;;;1.77;1.17;;;;;;;;;;4974927;28;20943;-91
2023/04/14 14:46:21;;;;;;;3.93;1.50;;;;;;;;;;4969306;28;20500;-91
2023/04/14 14:48:47;;;;;;;3.40;1.10;;;;;;;;;;4968532;28;21082;-90
2023/04/14 14:51:14;;;;;;;3.30;1.60;;;;;;;;;;4948433;28;20441;-90
2023/04/14 14:53:40;;;;;;;4.27;1.30;;;;;;;;;;4965767;28;20442;-91
2023/04/14 14:56:06;;;;;;;3.50;1.77;;;;;;;;;;4965043;28;20477;-90
2023/04/14 14:58:32;;;;;;;3.17;1.10;;;;;;;;;;4948053;28;20442;-90
2023/04/14 15:00:58;;;;;;;2.40;1.07;;;;;;;;;;4961572;28;20473;-89
2023/04/14 15:03:24;;;;;;;4.60;1.77;;;;;;;;;;4967091;28;20527;-90
2023/04/14 15:05:53;;;;;;;2.20;1.13;;;;;;;;;;4945396;28;20433;-89
2023/04/14 15:08:19;;;;;;;4.83;1.60;;;;;;;;;;4975677;28;20429;-90
2023/04/14 15:10:46;;;;;;;3.20;1.60;;;;;;;;;;4971511;28;20472;-90
2023/04/14 15:13:12;;;;;;;2.80;1.10;;;;;;;;;;4950200;28;20429;-91
2023/04/14 15:15:38;;;;;;;10.73;5.17;;;;;;;;;;4961636;28;21017;-90
2023/04/14 15:18:06;;;;;;;4.07;3.40;;;;;;;;;;4965055;28;20438;-90
2023/04/14 15:20:32;;;;;;;4.60;1.70;;;;;;;;;;4965040;28;20991;-91
2023/04/14 15:22:58;;;;;;;3.90;1.60;;;;;;;;;;4981941;28;20445;-90
2023/04/14 15:25:24;;;;;;;4.00;2.77;;;;;;;;;;4968254;28;20441;-89
2023/04/14 15:27:50;;;;;;;4.60;4.20;;;;;;;;;;4984800;28;20419;-90
2023/04/14 15:30:16;;;;;;;2.57;1.87;;;;;;;;;;4971559;28;20902;-90
2023/04/14 15:32:42;;;;;;;5.00;3.07;;;;;;;;;;4980769;28;20421;-89
2023/04/14 15:35:09;;;;;;;3.40;1.90;;;;;;;;;;4986577;28;20800;-90
2023/04/14 15:37:35;;;;;;;8.37;2.23;;;;;;;;;;4980796;28;20436;-89
2023/04/14 15:40:01;;;;;;;4.80;1.37;;;;;;;;;;4981863;28;20444;-90
2023/04/14 15:42:27;;;;;;;2.40;1.40;;;;;;;;;;4972000;28;20444;-90
2023/04/14 15:44:54;;;;;;;3.90;1.83;;;;;;;;;;4971160;28;20429;-91
2023/04/14 15:47:20;;;;;;;5.77;1.30;;;;;;;;;;5011110;28;20424;-90
2023/04/14 15:49:48;;;;;;;2.77;1.40;;;;;;;;;;4982118;28;20511;-91
2023/04/14 15:52:14;;;;;;;3.57;1.40;;;;;;;;;;4978625;28;20508;-92
2023/04/14 15:54:40;;;;;;;4.30;1.30;;;;;;;;;;4974327;28;20542;-92
2023/04/14 15:57:06;;;;;;;4.67;1.60;;;;;;;;;;4972996;28;20459;-91
2023/04/14 15:59:32;;;;;;;3.37;1.50;;;;;;;;;;4986674;28;20440;-91
2023/04/14 16:02:00;;;;;;;1.93;1.13;;;;;;;;;;4972865;28;20463;-90
2023/04/14 16:04:26;;;;;;;5.00;1.20;;;;;;;;;;4979376;28;20417;-92
2023/04/14 16:06:53;;;;;;;2.00;1.00;;;;;;;;;;4971761;28;20417;-91
2023/04/14 16:09:20;;;;;;;4.70;1.33;;;;;;;;;;4986576;28;20465;-91
2023/04/14 16:11:46;;;;;;;2.27;1.30;;;;;;;;;;4973799;28;20948;-91
2023/04/14 16:14:12;;;;;;;1.80;1.30;;;;;;;;;;4974358;28;20437;-92
2023/04/14 16:16:38;;;;;;;3.67;1.83;;;;;;;;;;5003227;28;20445;-91
2023/04/14 16:19:04;;;;;;;7.97;1.50;;;;;;;;;;4974262;28;20453;-92
2023/04/14 16:21:30;;;;;;;4.90;2.00;;;;;;;;;;4968273;28;20416;-92
2023/04/14 16:23:56;;;;;;;4.50;1.50;;;;;;;;;;4973089;28;20433;-93
2023/04/14 16:26:23;;;;;;;25.33;16.77;;;;;;;;;;4972004;28;20840;-90
2023/04/14 16:28:51;;;;;;;9.73;2.10;;;;;;;;;;4983136;28;20951;-91
2023/04/14 16:31:17;;;;;;;2.70;1.60;;;;;;;;;;4968703;28;20448;-91
2023/04/14 16:33:43;;;;;;;3.03;1.60;;;;;;;;;;4979536;28;20429;-91
2023/04/14 16:36:10;;;;;;;37.57;34.57;;;;;;;;;;4982510;28;20436;-91
2023/04/14 16:38:36;;;;;;;3.57;2.13;;;;;;;;;;4965262;28;20944;-90
2023/04/14 16:41:02;;;;;;;5.77;5.27;;;;;;;;;;4966308;28;20436;-90
2023/04/14 16:43:28;;;;;;;17.83;16.07;;;;;;;;;;4960336;28;20456;-89
2023/04/14 16:46:00;;;;;;;21.33;13.77;;;;;;;;;;4971526;28;20434;-91
2023/04/14 16:48:26;;;;;;;121.20;100.30;;;;;;;;;;4966410;28;20487;-90
2023/04/14 16:50:52;;;;;;;15.73;13.30;;;;;;;;;;4973805;28;20452;-91
2023/04/14 16:53:19;;;;;;;63.47;46.83;;;;;;;;;;4965278;28;20940;-90
2023/04/14 16:55:45;;;;;;;3.63;2.53;;;;;;;;;;4968089;28;20495;-91
2023/04/14 16:58:11;;;;;;;123.67;108.03;;;;;;;;;;4967964;28;20508;-91
2023/04/14 17:00:37;;;;;;;90.73;77.60;;;;;;;;;;4964502;28;21449;-90
2023/04/14 17:03:04;;;;;;;30.33;21.20;;;;;;;;;;4978111;28;20535;-91
2023/04/14 17:05:30;;;;;;;8.00;5.40;;;;;;;;;;4969586;28;20437;-90
2023/04/14 17:07:57;;;;;;;37.83;33.87;;;;;;;;;;4967927;28;20460;-91
2023/04/14 17:10:25;;;;;;;80.47;67.17;;;;;;;;;;4984188;28;20469;-89
2023/04/14 17:12:53;;;;;;;16.17;10.23;;;;;;;;;;4970108;28;20437;-91